メインページ
METAR-TAF:

METAR-TAF

空港 :

Port Hardy, ブリティッシュコロンビア州, カナダ

緯度: 50-41N, 経度: 127-22W, 海抜: 22m

現時点の気象観測

当レポートは46分前の17:23(UTC)に作成
西の風 5kt
気温 12°C
湿度 88%
気圧 1015 hPa
視程: 16.1km
高度2700ftの雲は散在している
高度3800ftの千切れ雲あり
高度5600ftの千切れ雲あり
小雨

METAR: CYZT 171723Z 26005KT 10SM -RA SCT027 BKN038 BKN056 12/10 A2997 RMK SC3SC3SC1 SC TR SLP152

時間: 10:09 (18:09 UTC)

予報

当レポートは5時間31分前の12:38(UTC)に作成
予報は17日の 13時(UTC)から 18日の 01時(UTC)まで有効
南東の風 5kt
視程: 3.2km
高度400ftの千切れ雲あり
高度2000ftの曇り
雨, 靄
17日の 13時(UTC)から 17日の 15時(UTC)まで一時的に
視程: 10km
高度400ftの雲はほとんどない
高度1200ftの雲は散在している
高度3000ftの曇り
小雨
17日の 1500時(UTC)から
南西の風 8kt
視程: 10km
高度1500ftの雲は散在している
高度3000ftの千切れ雲あり
17日の 15時(UTC)から 18日の 01時(UTC)まで一時的に
視程: 8.0km
高度800ftの雲はほとんどない
高度1500ftの千切れ雲あり
高度3000ftの曇り
弱いにわか雨, 靄

TAF: CYZT 171238Z 1713/1801 13005KT 2SM RA BR BKN004 OVC020 TEMPO 1713/1715 P6SM -RA FEW004 SCT012 OVC030 FM171500 22008KT P6SM SCT015 BKN030 TEMPO 1715/1801 5SM -SHRA BR FEW008 BKN015 OVC030 RMK NXT FCST BY 171900Z

4,000以上の空港の気象観測と天気予報(METAR報とTAF報)

利用可能な観測所は地図上に黄色い丸と赤い丸で示す。

丸の上にカーソルを重ねると観測所名を参照できる。

次にクリックすると気象観測と天気予報を参照できる。

マップの切り替え:黒色「×」印の緑ボタンをクリックして拡大、「-」印の緑ボタンをクリックして縮小、緑色の三角印をクリックして隣りの地図に切り替え


METAR-TAF: